createdAt,value
2022-10-29T00:01:34.384Z,16.69
2022-10-29T00:04:37.375Z,16.73
2022-10-29T00:07:41.612Z,16.72
2022-10-29T00:10:44.526Z,16.68
2022-10-29T00:13:48.914Z,16.72
2022-10-29T00:16:51.797Z,16.67
2022-10-29T00:19:54.787Z,16.75
2022-10-29T00:22:59.287Z,16.70
2022-10-29T00:26:03.039Z,16.69
2022-10-29T00:29:05.977Z,16.65
2022-10-29T00:32:10.022Z,16.61
2022-10-29T00:35:13.015Z,16.55
2022-10-29T00:38:17.275Z,16.42
2022-10-29T00:41:22.702Z,16.46
2022-10-29T00:44:35.380Z,16.49
2022-10-29T00:47:39.166Z,16.47
2022-10-29T00:50:42.129Z,16.42
2022-10-29T00:53:49.740Z,16.42
2022-10-29T00:56:56.523Z,16.33
2022-10-29T00:59:59.454Z,16.18
2022-10-29T01:03:02.407Z,16.10
2022-10-29T01:06:06.407Z,16.11
2022-10-29T01:09:10.752Z,16.15
2022-10-29T01:12:32.025Z,16.14
2022-10-29T01:15:42.234Z,16.08
2022-10-29T01:18:55.657Z,16.04
2022-10-29T01:22:04.137Z,15.92
2022-10-29T01:25:44.747Z,15.95
2022-10-29T01:29:04.858Z,15.89
2022-10-29T01:32:12.250Z,15.94
2022-10-29T01:35:19.987Z,15.95
2022-10-29T01:38:35.825Z,15.80
2022-10-29T01:41:50.887Z,15.89
2022-10-29T01:45:00.125Z,15.75
2022-10-29T01:48:10.276Z,15.67
2022-10-29T01:51:20.253Z,15.46
2022-10-29T01:54:23.224Z,15.51
2022-10-29T01:57:32.291Z,15.45
2022-10-29T02:00:41.724Z,15.39
2022-10-29T02:03:55.244Z,15.26
2022-10-29T02:07:05.770Z,15.06
2022-10-29T02:10:15.277Z,15.00
2022-10-29T02:13:20.385Z,15.04
2022-10-29T02:16:25.602Z,14.97
2022-10-29T02:19:32.940Z,14.96
2022-10-29T02:22:36.322Z,14.88
2022-10-29T02:25:39.311Z,14.82
2022-10-29T02:28:42.286Z,14.78
2022-10-29T02:31:45.364Z,14.81
2022-10-29T02:34:49.654Z,14.66
2022-10-29T02:37:52.728Z,14.76
2022-10-29T02:40:55.620Z,14.58
2022-10-29T02:43:58.597Z,14.38
2022-10-29T02:47:01.577Z,14.21
2022-10-29T02:50:07.007Z,14.10
2022-10-29T02:53:09.914Z,14.00
2022-10-29T02:56:12.802Z,13.98
2022-10-29T02:59:15.737Z,13.99
2022-10-29T03:02:18.817Z,13.69
2022-10-29T03:05:23.397Z,13.83
2022-10-29T03:08:26.256Z,13.73
2022-10-29T03:11:29.176Z,13.82
2022-10-29T03:14:32.106Z,13.84
2022-10-29T03:17:34.976Z,13.85
2022-10-29T03:20:39.256Z,13.81
2022-10-29T03:23:42.181Z,13.93
2022-10-29T03:26:45.041Z,13.84
2022-10-29T03:29:47.885Z,13.64
2022-10-29T03:32:50.842Z,13.77
2022-10-29T03:35:59.117Z,13.78
2022-10-29T03:39:02.072Z,13.73
2022-10-29T03:42:05.209Z,13.32
2022-10-29T03:45:09.803Z,13.43
2022-10-29T03:48:12.697Z,13.46
2022-10-29T03:51:16.950Z,13.04
2022-10-29T03:54:20.112Z,12.92
2022-10-29T03:57:23.101Z,13.10
2022-10-29T04:00:26.032Z,13.09
2022-10-29T04:03:30.695Z,13.22
2022-10-29T04:06:35.007Z,13.19
2022-10-29T04:09:37.852Z,13.05
2022-10-29T04:12:40.906Z,13.10
2022-10-29T04:15:44.141Z,13.02
2022-10-29T04:18:47.882Z,13.05
2022-10-29T04:24:12.076Z,13.09
2022-10-29T04:28:43.082Z,13.25
2022-10-29T04:31:46.565Z,13.21
2022-10-29T04:34:49.455Z,12.68
2022-10-29T04:37:55.449Z,12.59
2022-10-29T04:41:00.350Z,12.51
2022-10-29T04:44:03.439Z,12.61
2022-10-29T04:47:06.323Z,12.78
2022-10-29T04:50:09.947Z,12.92
2022-10-29T04:53:14.228Z,12.84
2022-10-29T04:56:17.508Z,12.77
2022-10-29T04:59:20.398Z,12.66
2022-10-29T05:02:23.274Z,12.66
2022-10-29T05:05:27.313Z,12.52
2022-10-29T05:08:31.653Z,12.65
2022-10-29T05:11:34.540Z,12.60
2022-10-29T05:14:37.459Z,12.60
2022-10-29T05:17:40.374Z,12.45
2022-10-29T05:20:43.291Z,12.57
2022-10-29T05:23:47.584Z,12.45
2022-10-29T05:26:50.563Z,12.45
2022-10-29T05:29:53.463Z,12.46
2022-10-29T05:32:57.048Z,12.49
2022-10-29T05:36:00.975Z,12.03
2022-10-29T05:39:05.303Z,12.17
2022-10-29T05:42:08.326Z,12.12
2022-10-29T05:45:11.751Z,12.15
2022-10-29T05:48:14.851Z,12.12
2022-10-29T05:51:17.741Z,12.24
2022-10-29T05:54:22.507Z,12.09
2022-10-29T05:57:25.396Z,11.95
2022-10-29T06:00:30.659Z,12.02
2022-10-29T06:03:33.705Z,11.61
2022-10-29T06:06:36.683Z,11.84
2022-10-29T06:09:41.058Z,11.75
2022-10-29T06:12:43.938Z,11.47
2022-10-29T06:15:47.095Z,11.45
2022-10-29T06:18:50.380Z,11.46
2022-10-29T06:21:55.277Z,11.56
2022-10-29T06:25:03.538Z,11.64
2022-10-29T06:28:08.188Z,11.70
2022-10-29T06:31:11.096Z,11.66
2022-10-29T06:34:14.750Z,11.77
2022-10-29T06:37:17.770Z,11.67
2022-10-29T06:40:21.988Z,11.65
2022-10-29T06:43:24.845Z,11.81
2022-10-29T06:46:27.711Z,12.03
2022-10-29T06:49:30.537Z,12.25
2022-10-29T06:52:33.517Z,12.33
2022-10-29T06:55:37.866Z,12.08
2022-10-29T06:58:40.699Z,12.03
2022-10-29T07:01:43.632Z,12.12
2022-10-29T07:04:46.532Z,12.29
2022-10-29T07:07:49.452Z,12.48
2022-10-29T07:10:54.749Z,12.61
2022-10-29T07:13:57.609Z,12.81
2022-10-29T07:17:00.461Z,13.11
2022-10-29T07:20:03.687Z,13.27
2022-10-29T07:23:06.919Z,13.45
2022-10-29T07:26:11.435Z,13.70
2022-10-29T07:29:14.310Z,13.80
2022-10-29T07:32:17.269Z,13.90
2022-10-29T07:35:20.080Z,14.04
2022-10-29T07:38:22.985Z,14.15
2022-10-29T07:41:27.257Z,14.23
2022-10-29T07:44:30.116Z,14.25
2022-10-29T07:47:33.028Z,14.43
2022-10-29T07:50:36.115Z,14.52
2022-10-29T07:53:39.020Z,14.49
2022-10-29T07:56:46.689Z,14.52
2022-10-29T07:59:52.063Z,14.58
2022-10-29T08:02:55.800Z,14.59
2022-10-29T08:05:58.960Z,14.61
2022-10-29T08:09:01.804Z,14.64
2022-10-29T08:12:09.152Z,14.68
2022-10-29T08:15:12.356Z,14.85
2022-10-29T08:18:17.510Z,15.06
2022-10-29T08:21:20.562Z,15.17
2022-10-29T08:24:23.549Z,15.28
2022-10-29T08:27:28.111Z,15.57
2022-10-29T08:30:31.858Z,15.51
2022-10-29T08:33:34.730Z,15.59
2022-10-29T08:36:37.583Z,15.71
2022-10-29T08:39:40.574Z,15.88
2022-10-29T08:42:57.708Z,15.95
2022-10-29T08:46:01.294Z,16.01
2022-10-29T08:49:11.681Z,16.23
2022-10-29T08:52:20.200Z,16.26
2022-10-29T08:55:26.330Z,16.43
2022-10-29T08:58:34.694Z,16.45
2022-10-29T09:01:38.872Z,16.55
2022-10-29T09:04:41.796Z,16.53
2022-10-29T09:08:02.101Z,16.66
2022-10-29T09:11:22.738Z,17.01
2022-10-29T09:14:40.596Z,17.12
2022-10-29T09:17:52.842Z,17.39
2022-10-29T09:21:02.587Z,17.54
2022-10-29T09:24:14.690Z,17.60
2022-10-29T09:27:24.879Z,17.57
2022-10-29T09:30:31.864Z,17.43
2022-10-29T09:33:34.829Z,17.63
2022-10-29T09:36:37.988Z,17.60
2022-10-29T09:39:43.270Z,17.79
2022-10-29T09:42:48.594Z,18.06
2022-10-29T09:46:01.587Z,18.27
2022-10-29T09:49:16.634Z,18.39
2022-10-29T09:52:24.081Z,18.58
2022-10-29T09:55:29.261Z,18.81
2022-10-29T09:58:32.165Z,18.93
2022-10-29T10:01:36.673Z,19.01
2022-10-29T10:04:46.461Z,19.30
2022-10-29T10:08:06.798Z,19.44
2022-10-29T10:11:19.410Z,19.56
2022-10-29T10:14:24.109Z,19.73
2022-10-29T10:17:28.317Z,19.88
2022-10-29T10:20:39.282Z,19.83
2022-10-29T10:23:46.014Z,19.98
2022-10-29T10:26:48.876Z,20.08
2022-10-29T10:30:12.656Z,20.08
2022-10-29T10:33:27.092Z,20.02
2022-10-29T10:36:30.916Z,20.12
2022-10-29T10:39:37.747Z,20.20
2022-10-29T10:42:44.341Z,20.28
2022-10-29T10:45:54.690Z,20.73
2022-10-29T10:49:02.132Z,20.89
2022-10-29T10:52:07.499Z,20.97
2022-10-29T10:55:22.983Z,21.06
2022-10-29T10:58:32.472Z,21.11
2022-10-29T11:01:40.795Z,21.30
2022-10-29T11:04:46.658Z,21.42
2022-10-29T11:07:58.614Z,21.53
2022-10-29T11:11:08.122Z,21.56
2022-10-29T11:14:15.860Z,21.59
2022-10-29T11:17:28.952Z,21.63
2022-10-29T11:20:37.055Z,21.44
2022-10-29T11:23:54.934Z,21.39
2022-10-29T11:27:04.156Z,21.52
2022-10-29T11:30:10.977Z,21.45
2022-10-29T11:33:23.714Z,21.58
2022-10-29T11:36:32.434Z,21.39
2022-10-29T11:39:46.710Z,21.53
2022-10-29T11:42:50.846Z,21.51
2022-10-29T11:46:06.131Z,21.69
2022-10-29T11:49:23.848Z,21.66
2022-10-29T11:52:35.607Z,21.56
2022-10-29T11:55:48.195Z,21.56
2022-10-29T11:58:55.560Z,21.63
2022-10-29T12:02:07.187Z,21.78
2022-10-29T12:05:20.961Z,21.96
2022-10-29T12:08:43.917Z,21.90
2022-10-29T12:11:53.769Z,21.97
2022-10-29T12:15:04.290Z,22.03
2022-10-29T12:18:18.880Z,22.13
2022-10-29T12:21:29.225Z,22.06
2022-10-29T12:24:53.442Z,21.99
2022-10-29T12:28:07.764Z,22.06
2022-10-29T12:31:24.363Z,22.11
2022-10-29T12:34:36.486Z,22.23
2022-10-29T12:37:45.323Z,22.19
2022-10-29T12:40:53.208Z,22.08
2022-10-29T12:44:02.268Z,21.93
2022-10-29T12:47:12.899Z,21.77
2022-10-29T12:50:34.572Z,21.74
2022-10-29T12:53:43.158Z,21.71
2022-10-29T12:56:50.306Z,21.54
2022-10-29T12:59:53.746Z,21.55
2022-10-29T13:02:57.374Z,21.49
2022-10-29T13:06:39.127Z,21.42
2022-10-29T13:09:44.299Z,21.50
2022-10-29T13:13:03.032Z,21.53
2022-10-29T13:16:12.896Z,21.54
2022-10-29T13:19:22.322Z,21.41
2022-10-29T13:22:56.843Z,21.47
2022-10-29T13:26:00.616Z,21.32
2022-10-29T13:29:04.980Z,21.29
2022-10-29T13:32:08.721Z,21.29
2022-10-29T13:35:39.728Z,21.30
2022-10-29T13:38:57.957Z,21.09
2022-10-29T13:42:13.600Z,21.10
2022-10-29T13:45:19.067Z,21.14
2022-10-29T13:48:29.181Z,21.13
2022-10-29T13:51:40.118Z,21.16
2022-10-29T13:54:48.364Z,21.05
2022-10-29T13:58:00.067Z,21.09
2022-10-29T14:01:10.262Z,21.06
2022-10-29T14:04:23.550Z,21.08
2022-10-29T14:07:35.018Z,21.06
2022-10-29T14:10:46.642Z,21.04
2022-10-29T14:13:54.272Z,21.00
2022-10-29T14:17:16.286Z,21.02
2022-10-29T14:20:25.355Z,20.96
2022-10-29T14:23:30.233Z,20.93
2022-10-29T14:26:34.587Z,20.95
2022-10-29T14:29:38.389Z,20.87
2022-10-29T14:32:45.355Z,20.79
2022-10-29T14:35:48.684Z,20.81
2022-10-29T14:38:53.871Z,20.78
2022-10-29T14:41:57.594Z,20.83
2022-10-29T14:45:03.718Z,20.75
2022-10-29T14:48:16.239Z,20.67
2022-10-29T14:51:23.238Z,20.63
2022-10-29T14:54:32.001Z,20.57
2022-10-29T14:57:40.574Z,20.59
2022-10-29T15:01:02.976Z,20.57
2022-10-29T15:04:19.861Z,20.52
2022-10-29T15:07:32.237Z,20.45
2022-10-29T15:10:49.202Z,20.39
2022-10-29T15:13:52.188Z,20.33
2022-10-29T15:16:55.283Z,20.31
2022-10-29T15:20:03.740Z,20.07
2022-10-29T15:23:07.437Z,19.87
2022-10-29T15:26:15.957Z,19.93
2022-10-29T15:29:27.876Z,19.84
2022-10-29T15:32:34.064Z,19.79
2022-10-29T15:35:51.820Z,19.70
2022-10-29T15:39:26.695Z,19.54
2022-10-29T15:42:32.172Z,19.29
2022-10-29T15:45:35.167Z,19.30
2022-10-29T15:48:38.113Z,19.22
2022-10-29T15:51:42.574Z,19.24
2022-10-29T15:54:45.679Z,19.19
2022-10-29T15:57:51.767Z,19.14
2022-10-29T16:00:54.690Z,18.97
2022-10-29T16:03:57.682Z,18.96
2022-10-29T16:07:02.096Z,19.01
2022-10-29T16:10:05.516Z,19.10
2022-10-29T16:13:11.982Z,19.10
2022-10-29T16:16:17.332Z,19.06
2022-10-29T16:19:20.268Z,19.08
2022-10-29T16:22:29.526Z,19.10
2022-10-29T16:25:32.715Z,19.19
2022-10-29T16:28:35.603Z,19.13
2022-10-29T16:31:38.697Z,19.10
2022-10-29T16:34:41.630Z,19.05
2022-10-29T16:37:45.882Z,19.11
2022-10-29T16:40:48.980Z,19.10
2022-10-29T16:43:52.606Z,19.05
2022-10-29T16:46:55.486Z,18.92
2022-10-29T16:49:58.479Z,18.83
2022-10-29T16:53:06.199Z,18.78
2022-10-29T16:56:09.498Z,18.53
2022-10-29T16:59:12.404Z,18.55
2022-10-29T17:02:17.720Z,18.57
2022-10-29T17:05:20.652Z,18.43
2022-10-29T17:08:24.888Z,18.38
2022-10-29T17:11:27.829Z,18.35
2022-10-29T17:14:30.787Z,18.25
2022-10-29T17:17:33.861Z,18.16
2022-10-29T17:20:36.709Z,18.13
2022-10-29T17:23:40.910Z,17.90
2022-10-29T17:26:43.822Z,17.94
2022-10-29T17:29:46.774Z,17.80
2022-10-29T17:32:49.741Z,17.65
2022-10-29T17:36:02.142Z,17.57
2022-10-29T17:39:07.014Z,17.41
2022-10-29T17:42:09.875Z,17.36
2022-10-29T17:45:13.560Z,17.24
2022-10-29T17:48:18.659Z,17.24
2022-10-29T17:51:23.023Z,17.21
2022-10-29T17:54:27.946Z,17.25
2022-10-29T17:57:31.397Z,17.20
2022-10-29T18:00:34.388Z,16.89
2022-10-29T18:03:38.264Z,16.99
2022-10-29T18:06:41.156Z,17.00
2022-10-29T18:09:45.409Z,16.91
2022-10-29T18:12:48.274Z,16.89
2022-10-29T18:15:51.137Z,16.76
2022-10-29T18:19:01.317Z,16.17
2022-10-29T18:22:04.710Z,16.44
2022-10-29T18:25:10.531Z,16.30
2022-10-29T18:28:13.571Z,16.38
2022-10-29T18:31:16.552Z,16.17
2022-10-29T18:34:19.623Z,15.97
2022-10-29T18:37:22.600Z,15.82
2022-10-29T18:40:26.885Z,15.93
2022-10-29T18:43:30.974Z,15.78
2022-10-29T18:46:34.114Z,15.97
2022-10-29T18:49:37.063Z,15.85
2022-10-29T18:52:39.982Z,15.97
2022-10-29T18:55:51.293Z,15.88
2022-10-29T18:58:55.713Z,15.78
2022-10-29T19:01:58.831Z,15.85
2022-10-29T19:05:02.095Z,15.87
2022-10-29T19:08:05.795Z,15.97
2022-10-29T19:11:12.564Z,15.96
2022-10-29T19:14:15.452Z,15.95
2022-10-29T19:17:18.384Z,16.00
2022-10-29T19:20:21.234Z,16.06
2022-10-29T19:23:24.260Z,16.01
2022-10-29T19:26:30.061Z,15.86
2022-10-29T19:29:33.046Z,15.98
2022-10-29T19:32:36.032Z,15.98
2022-10-29T19:35:38.915Z,16.01
2022-10-29T19:38:41.921Z,16.00
2022-10-29T19:41:46.497Z,16.01
2022-10-29T19:44:53.593Z,15.91
2022-10-29T19:48:00.086Z,15.94
2022-10-29T19:51:04.134Z,15.89
2022-10-29T19:54:08.248Z,15.86
2022-10-29T19:57:12.505Z,15.90
2022-10-29T20:00:17.785Z,15.89
2022-10-29T20:03:21.375Z,15.86
2022-10-29T20:06:24.320Z,15.83
2022-10-29T20:09:27.309Z,15.91
2022-10-29T20:12:31.720Z,15.90
2022-10-29T20:15:34.839Z,15.85
2022-10-29T20:18:38.301Z,15.85
2022-10-29T20:21:41.449Z,15.87
2022-10-29T20:24:44.498Z,15.80
2022-10-29T20:27:48.932Z,15.84
2022-10-29T20:30:51.867Z,15.74
2022-10-29T20:33:56.821Z,15.63
2022-10-29T20:40:02.472Z,15.65
2022-10-29T20:43:07.209Z,15.56
2022-10-29T20:46:10.328Z,15.58
2022-10-29T20:49:13.267Z,15.60
2022-10-29T20:52:16.583Z,15.61
2022-10-29T20:55:19.498Z,15.58
2022-10-29T20:58:23.912Z,15.62
2022-10-29T21:01:27.051Z,15.61
2022-10-29T21:04:30.368Z,15.58
2022-10-29T21:07:33.428Z,15.60
2022-10-29T21:10:36.518Z,15.62
2022-10-29T21:13:41.052Z,15.62
2022-10-29T21:16:43.990Z,15.59
2022-10-29T21:19:47.179Z,15.57
2022-10-29T21:22:50.229Z,15.54
2022-10-29T21:25:53.776Z,15.47
2022-10-29T21:28:58.228Z,15.49
2022-10-29T21:32:01.183Z,15.47
2022-10-29T21:35:04.140Z,15.45
2022-10-29T21:38:07.245Z,15.41
2022-10-29T21:41:10.586Z,15.40
2022-10-29T21:44:14.843Z,15.35
2022-10-29T21:47:17.728Z,15.31
2022-10-29T21:50:20.597Z,15.37
2022-10-29T21:53:23.451Z,15.35
2022-10-29T21:56:26.353Z,15.34
2022-10-29T21:59:30.573Z,15.28
2022-10-29T22:02:33.475Z,15.27
2022-10-29T22:05:36.390Z,15.26
2022-10-29T22:08:39.520Z,15.26
2022-10-29T22:11:42.499Z,15.23
2022-10-29T22:14:47.665Z,15.19
2022-10-29T22:17:50.587Z,15.21
2022-10-29T22:21:03.638Z,15.19
2022-10-29T22:24:07.121Z,15.12
2022-10-29T22:27:10.028Z,15.15
2022-10-29T22:30:14.852Z,15.16
2022-10-29T22:33:17.858Z,15.17
2022-10-29T22:36:23.605Z,15.17
2022-10-29T22:39:26.762Z,15.18
2022-10-29T22:42:29.602Z,15.20
2022-10-29T22:45:33.847Z,15.20
2022-10-29T22:48:37.079Z,15.17
2022-10-29T22:51:40.330Z,15.21
2022-10-29T22:54:43.200Z,15.17
2022-10-29T22:57:46.133Z,15.20
2022-10-29T23:00:50.439Z,15.25
2022-10-29T23:03:53.761Z,15.20
2022-10-29T23:07:01.616Z,15.17
2022-10-29T23:10:05.304Z,15.25
2022-10-29T23:13:08.105Z,15.22
2022-10-29T23:16:12.396Z,15.19
2022-10-29T23:19:15.233Z,15.17
2022-10-29T23:22:19.237Z,15.16
2022-10-29T23:25:23.841Z,15.12
2022-10-29T23:28:26.696Z,15.18
2022-10-29T23:31:30.949Z,15.15
2022-10-29T23:34:33.779Z,15.12
2022-10-29T23:37:36.685Z,15.15
2022-10-29T23:40:39.693Z,15.09
2022-10-29T23:43:42.605Z,15.06
2022-10-29T23:46:46.857Z,15.09
2022-10-29T23:49:49.736Z,14.99
2022-10-29T23:52:52.633Z,14.94
2022-10-29T23:55:55.490Z,14.92
2022-10-29T23:58:58.419Z,14.92
